sensor_id;sensor_type;location;lat;lon;timestamp;temperature;humidity
5962;DHT22;3007;50.770;0.250;2023-10-09T00:02:02;15.30;99.90
5962;DHT22;3007;50.770;0.250;2023-10-09T00:04:31;15.30;99.90
5962;DHT22;3007;50.770;0.250;2023-10-09T00:07:02;15.30;99.90
5962;DHT22;3007;50.770;0.250;2023-10-09T00:09:31;15.30;99.90
5962;DHT22;3007;50.770;0.250;2023-10-09T00:12:00;15.30;99.90
5962;DHT22;3007;50.770;0.250;2023-10-09T00:14:35;15.30;99.90
5962;DHT22;3007;50.770;0.250;2023-10-09T00:17:04;15.30;99.90
5962;DHT22;3007;50.770;0.250;2023-10-09T00:19:43;15.20;99.90
5962;DHT22;3007;50.770;0.250;2023-10-09T00:22:12;15.30;99.90
5962;DHT22;3007;50.770;0.250;2023-10-09T00:24:52;15.30;99.90
5962;DHT22;3007;50.770;0.250;2023-10-09T00:27:39;15.40;99.90
5962;DHT22;3007;50.770;0.250;2023-10-09T00:30:09;15.30;99.90
5962;DHT22;3007;50.770;0.250;2023-10-09T00:32:40;15.30;99.90
5962;DHT22;3007;50.770;0.250;2023-10-09T00:35:11;15.40;99.90
5962;DHT22;3007;50.770;0.250;2023-10-09T00:37:51;15.40;99.90
5962;DHT22;3007;50.770;0.250;2023-10-09T00:40:30;15.30;99.90
5962;DHT22;3007;50.770;0.250;2023-10-09T00:43:02;15.30;99.90
5962;DHT22;3007;50.770;0.250;2023-10-09T00:45:32;15.40;99.90
5962;DHT22;3007;50.770;0.250;2023-10-09T00:48:05;15.30;99.90
5962;DHT22;3007;50.770;0.250;2023-10-09T00:50:34;15.30;99.90
5962;DHT22;3007;50.770;0.250;2023-10-09T00:53:05;15.30;99.90
5962;DHT22;3007;50.770;0.250;2023-10-09T00:55:38;15.30;99.90
5962;DHT22;3007;50.770;0.250;2023-10-09T00:58:12;15.20;99.90
5962;DHT22;3007;50.770;0.250;2023-10-09T01:00:41;15.20;99.90
5962;DHT22;3007;50.770;0.250;2023-10-09T01:03:18;15.30;99.90
5962;DHT22;3007;50.770;0.250;2023-10-09T01:05:48;15.20;99.90
5962;DHT22;3007;50.770;0.250;2023-10-09T01:08:24;15.30;99.90
5962;DHT22;3007;50.770;0.250;2023-10-09T01:10:57;15.20;99.90
5962;DHT22;3007;50.770;0.250;2023-10-09T01:13:36;15.20;99.90
5962;DHT22;3007;50.770;0.250;2023-10-09T01:16:19;15.20;99.90
5962;DHT22;3007;50.770;0.250;2023-10-09T01:18:49;15.20;99.90
5962;DHT22;3007;50.770;0.250;2023-10-09T01:21:16;15.20;99.90
5962;DHT22;3007;50.770;0.250;2023-10-09T01:23:45;15.20;99.90
5962;DHT22;3007;50.770;0.250;2023-10-09T01:26:28;15.20;99.90
5962;DHT22;3007;50.770;0.250;2023-10-09T01:28:58;15.20;99.90
5962;DHT22;3007;50.770;0.250;2023-10-09T01:31:25;15.10;99.90
5962;DHT22;3007;50.770;0.250;2023-10-09T01:33:53;15.10;99.90
5962;DHT22;3007;50.770;0.250;2023-10-09T01:36:25;15.20;99.90
5962;DHT22;3007;50.770;0.250;2023-10-09T01:39:00;15.20;99.90
5962;DHT22;3007;50.770;0.250;2023-10-09T01:41:32;15.20;99.90
5962;DHT22;3007;50.770;0.250;2023-10-09T01:43:59;15.30;99.90
5962;DHT22;3007;50.770;0.250;2023-10-09T01:46:35;15.20;99.90
5962;DHT22;3007;50.770;0.250;2023-10-09T01:49:02;15.20;99.90
5962;DHT22;3007;50.770;0.250;2023-10-09T01:51:36;15.20;99.90
5962;DHT22;3007;50.770;0.250;2023-10-09T01:54:05;15.20;99.90
5962;DHT22;3007;50.770;0.250;2023-10-09T01:56:32;15.10;99.90
5962;DHT22;3007;50.770;0.250;2023-10-09T01:59:02;15.10;99.90
5962;DHT22;3007;50.770;0.250;2023-10-09T02:01:31;15.20;99.90
5962;DHT22;3007;50.770;0.250;2023-10-09T02:03:59;15.20;99.90
5962;DHT22;3007;50.770;0.250;2023-10-09T02:06:32;15.20;99.90
5962;DHT22;3007;50.770;0.250;2023-10-09T02:09:04;15.20;99.90
5962;DHT22;3007;50.770;0.250;2023-10-09T02:11:32;15.20;99.90
5962;DHT22;3007;50.770;0.250;2023-10-09T02:14:07;15.20;99.90
5962;DHT22;3007;50.770;0.250;2023-10-09T02:16:45;15.20;99.90
5962;DHT22;3007;50.770;0.250;2023-10-09T02:19:28;15.30;99.90
5962;DHT22;3007;50.770;0.250;2023-10-09T02:21:59;15.30;99.90
5962;DHT22;3007;50.770;0.250;2023-10-09T02:24:32;15.30;99.90
5962;DHT22;3007;50.770;0.250;2023-10-09T02:27:17;15.30;99.90
5962;DHT22;3007;50.770;0.250;2023-10-09T02:30:03;15.30;99.90
5962;DHT22;3007;50.770;0.250;2023-10-09T02:32:41;15.30;99.90
5962;DHT22;3007;50.770;0.250;2023-10-09T02:35:09;15.30;99.90
5962;DHT22;3007;50.770;0.250;2023-10-09T02:37:45;15.30;99.90
5962;DHT22;3007;50.770;0.250;2023-10-09T02:40:14;15.30;99.90
5962;DHT22;3007;50.770;0.250;2023-10-09T02:42:50;15.30;99.90
5962;DHT22;3007;50.770;0.250;2023-10-09T02:45:17;15.30;99.90
5962;DHT22;3007;50.770;0.250;2023-10-09T02:47:45;15.30;99.90
5962;DHT22;3007;50.770;0.250;2023-10-09T02:50:14;15.30;99.90
5962;DHT22;3007;50.770;0.250;2023-10-09T02:52:46;15.30;99.90
5962;DHT22;3007;50.770;0.250;2023-10-09T02:55:19;15.30;99.90
5962;DHT22;3007;50.770;0.250;2023-10-09T02:57:52;15.30;99.90
5962;DHT22;3007;50.770;0.250;2023-10-09T03:00:30;15.30;99.90
5962;DHT22;3007;50.770;0.250;2023-10-09T03:02:58;15.30;99.90
5962;DHT22;3007;50.770;0.250;2023-10-09T03:05:25;15.30;99.90
5962;DHT22;3007;50.770;0.250;2023-10-09T03:07:54;15.30;99.90
5962;DHT22;3007;50.770;0.250;2023-10-09T03:10:23;15.30;99.90
5962;DHT22;3007;50.770;0.250;2023-10-09T03:12:51;15.30;99.90
5962;DHT22;3007;50.770;0.250;2023-10-09T03:15:18;15.20;99.90
5962;DHT22;3007;50.770;0.250;2023-10-09T03:17:46;15.20;99.90
5962;DHT22;3007;50.770;0.250;2023-10-09T03:20:13;15.20;99.90
5962;DHT22;3007;50.770;0.250;2023-10-09T03:22:43;15.20;99.90
5962;DHT22;3007;50.770;0.250;2023-10-09T03:25:11;15.20;99.90
5962;DHT22;3007;50.770;0.250;2023-10-09T03:27:42;15.10;99.90
5962;DHT22;3007;50.770;0.250;2023-10-09T03:30:12;15.10;99.90
5962;DHT22;3007;50.770;0.250;2023-10-09T03:32:45;15.10;99.90
5962;DHT22;3007;50.770;0.250;2023-10-09T03:35:16;15.10;99.90
5962;DHT22;3007;50.770;0.250;2023-10-09T03:37:51;15.10;99.90
5962;DHT22;3007;50.770;0.250;2023-10-09T03:40:22;15.10;99.90
5962;DHT22;3007;50.770;0.250;2023-10-09T03:42:51;15.10;99.90
5962;DHT22;3007;50.770;0.250;2023-10-09T03:45:19;15.10;99.90
5962;DHT22;3007;50.770;0.250;2023-10-09T03:47:54;15.10;99.90
5962;DHT22;3007;50.770;0.250;2023-10-09T03:50:28;15.00;99.90
5962;DHT22;3007;50.770;0.250;2023-10-09T03:53:02;15.10;99.90
5962;DHT22;3007;50.770;0.250;2023-10-09T03:55:32;15.10;99.90
5962;DHT22;3007;50.770;0.250;2023-10-09T03:58:00;15.10;99.90
5962;DHT22;3007;50.770;0.250;2023-10-09T04:00:28;15.10;99.90
5962;DHT22;3007;50.770;0.250;2023-10-09T04:02:57;15.10;99.90
5962;DHT22;3007;50.770;0.250;2023-10-09T04:05:24;15.00;99.90
5962;DHT22;3007;50.770;0.250;2023-10-09T04:07:51;15.00;99.90
5962;DHT22;3007;50.770;0.250;2023-10-09T04:10:19;15.00;99.90
5962;DHT22;3007;50.770;0.250;2023-10-09T04:13:05;15.00;99.90
5962;DHT22;3007;50.770;0.250;2023-10-09T04:15:37;15.00;99.90
5962;DHT22;3007;50.770;0.250;2023-10-09T04:18:08;15.00;99.90
5962;DHT22;3007;50.770;0.250;2023-10-09T04:20:40;15.00;99.90
5962;DHT22;3007;50.770;0.250;2023-10-09T04:23:25;15.00;99.90
5962;DHT22;3007;50.770;0.250;2023-10-09T04:26:01;15.00;99.90
5962;DHT22;3007;50.770;0.250;2023-10-09T04:28:37;14.90;99.90
5962;DHT22;3007;50.770;0.250;2023-10-09T04:31:07;14.90;99.90
5962;DHT22;3007;50.770;0.250;2023-10-09T04:33:34;14.90;99.90
5962;DHT22;3007;50.770;0.250;2023-10-09T04:36:09;14.90;99.90
5962;DHT22;3007;50.770;0.250;2023-10-09T04:38:47;14.90;99.90
5962;DHT22;3007;50.770;0.250;2023-10-09T04:41:21;14.90;99.90
5962;DHT22;3007;50.770;0.250;2023-10-09T04:43:54;14.90;99.90
5962;DHT22;3007;50.770;0.250;2023-10-09T04:46:43;14.80;99.90
5962;DHT22;3007;50.770;0.250;2023-10-09T04:49:09;14.90;99.90
5962;DHT22;3007;50.770;0.250;2023-10-09T04:51:52;14.80;99.90
5962;DHT22;3007;50.770;0.250;2023-10-09T04:54:30;14.80;99.90
5962;DHT22;3007;50.770;0.250;2023-10-09T04:57:05;14.80;99.90
5962;DHT22;3007;50.770;0.250;2023-10-09T04:59:44;14.80;99.90
5962;DHT22;3007;50.770;0.250;2023-10-09T05:02:14;14.90;99.90
5962;DHT22;3007;50.770;0.250;2023-10-09T05:04:46;14.80;99.90
5962;DHT22;3007;50.770;0.250;2023-10-09T05:07:17;14.80;99.90
5962;DHT22;3007;50.770;0.250;2023-10-09T05:09:50;14.80;99.90
5962;DHT22;3007;50.770;0.250;2023-10-09T05:12:22;14.90;99.90
5962;DHT22;3007;50.770;0.250;2023-10-09T05:14:53;14.80;99.90
5962;DHT22;3007;50.770;0.250;2023-10-09T05:17:30;14.80;99.90
5962;DHT22;3007;50.770;0.250;2023-10-09T05:20:00;14.80;99.90
5962;DHT22;3007;50.770;0.250;2023-10-09T05:22:40;14.80;99.90
5962;DHT22;3007;50.770;0.250;2023-10-09T05:25:18;14.70;99.90
5962;DHT22;3007;50.770;0.250;2023-10-09T05:28:05;14.70;99.90
5962;DHT22;3007;50.770;0.250;2023-10-09T05:30:47;14.60;99.90
5962;DHT22;3007;50.770;0.250;2023-10-09T05:33:20;14.50;99.90
5962;DHT22;3007;50.770;0.250;2023-10-09T05:36:03;14.50;99.90
5962;DHT22;3007;50.770;0.250;2023-10-09T05:38:57;14.40;99.90
5962;DHT22;3007;50.770;0.250;2023-10-09T05:41:44;14.40;99.90
5962;DHT22;3007;50.770;0.250;2023-10-09T05:44:17;14.40;99.90
5962;DHT22;3007;50.770;0.250;2023-10-09T05:47:03;14.50;99.90
5962;DHT22;3007;50.770;0.250;2023-10-09T05:49:55;14.50;99.90
5962;DHT22;3007;50.770;0.250;2023-10-09T05:52:44;14.40;99.90
5962;DHT22;3007;50.770;0.250;2023-10-09T05:55:29;14.40;99.90
5962;DHT22;3007;50.770;0.250;2023-10-09T05:58:14;14.30;99.90
5962;DHT22;3007;50.770;0.250;2023-10-09T06:00:58;14.30;99.90
5962;DHT22;3007;50.770;0.250;2023-10-09T06:03:44;14.20;99.90
5962;DHT22;3007;50.770;0.250;2023-10-09T06:06:21;14.20;99.90
5962;DHT22;3007;50.770;0.250;2023-10-09T06:09:00;14.20;99.90
5962;DHT22;3007;50.770;0.250;2023-10-09T06:11:45;14.20;99.90
5962;DHT22;3007;50.770;0.250;2023-10-09T06:14:16;14.30;99.90
5962;DHT22;3007;50.770;0.250;2023-10-09T06:16:51;14.40;99.90
5962;DHT22;3007;50.770;0.250;2023-10-09T06:19:28;14.40;99.90
5962;DHT22;3007;50.770;0.250;2023-10-09T06:21:55;14.50;99.90
5962;DHT22;3007;50.770;0.250;2023-10-09T06:25:07;14.40;99.90
5962;DHT22;3007;50.770;0.250;2023-10-09T06:27:34;14.40;99.90
5962;DHT22;3007;50.770;0.250;2023-10-09T06:30:22;14.50;99.90
5962;DHT22;3007;50.770;0.250;2023-10-09T06:32:53;14.60;99.90
5962;DHT22;3007;50.770;0.250;2023-10-09T06:35:46;14.60;99.90
5962;DHT22;3007;50.770;0.250;2023-10-09T06:38:19;14.70;99.90
5962;DHT22;3007;50.770;0.250;2023-10-09T06:40:59;14.70;99.90
5962;DHT22;3007;50.770;0.250;2023-10-09T06:43:42;14.90;99.90
5962;DHT22;3007;50.770;0.250;2023-10-09T06:46:18;14.70;99.90
5962;DHT22;3007;50.770;0.250;2023-10-09T06:49:09;14.70;99.90
5962;DHT22;3007;50.770;0.250;2023-10-09T06:51:56;14.70;99.90
5962;DHT22;3007;50.770;0.250;2023-10-09T06:54:40;14.80;99.90
5962;DHT22;3007;50.770;0.250;2023-10-09T06:57:15;14.80;99.90
5962;DHT22;3007;50.770;0.250;2023-10-09T07:00:03;14.90;99.90
5962;DHT22;3007;50.770;0.250;2023-10-09T07:02:56;14.80;99.90
5962;DHT22;3007;50.770;0.250;2023-10-09T07:05:23;14.90;99.90
5962;DHT22;3007;50.770;0.250;2023-10-09T07:07:58;15.00;99.90
5962;DHT22;3007;50.770;0.250;2023-10-09T07:10:45;15.00;99.90
5962;DHT22;3007;50.770;0.250;2023-10-09T07:13:28;15.10;99.90
5962;DHT22;3007;50.770;0.250;2023-10-09T07:15:55;15.10;99.90
5962;DHT22;3007;50.770;0.250;2023-10-09T07:18:40;15.20;99.90
5962;DHT22;3007;50.770;0.250;2023-10-09T07:21:14;15.20;99.90
5962;DHT22;3007;50.770;0.250;2023-10-09T07:23:45;15.20;99.90
5962;DHT22;3007;50.770;0.250;2023-10-09T07:26:14;15.30;99.90
5962;DHT22;3007;50.770;0.250;2023-10-09T07:28:49;15.40;99.90
5962;DHT22;3007;50.770;0.250;2023-10-09T07:31:19;15.40;99.90
5962;DHT22;3007;50.770;0.250;2023-10-09T07:33:54;15.50;99.90
5962;DHT22;3007;50.770;0.250;2023-10-09T07:36:25;15.60;99.90
5962;DHT22;3007;50.770;0.250;2023-10-09T07:39:05;15.70;99.90
5962;DHT22;3007;50.770;0.250;2023-10-09T07:41:42;15.80;99.90
5962;DHT22;3007;50.770;0.250;2023-10-09T07:44:22;15.90;99.90
5962;DHT22;3007;50.770;0.250;2023-10-09T07:47:03;16.00;99.90
5962;DHT22;3007;50.770;0.250;2023-10-09T07:49:48;16.10;99.90
5962;DHT22;3007;50.770;0.250;2023-10-09T07:52:20;16.20;99.90
5962;DHT22;3007;50.770;0.250;2023-10-09T07:54:50;16.30;99.90
5962;DHT22;3007;50.770;0.250;2023-10-09T07:57:21;16.30;99.90
5962;DHT22;3007;50.770;0.250;2023-10-09T07:59:52;16.40;99.90
5962;DHT22;3007;50.770;0.250;2023-10-09T08:02:29;16.50;99.90
5962;DHT22;3007;50.770;0.250;2023-10-09T08:04:59;16.50;99.90
5962;DHT22;3007;50.770;0.250;2023-10-09T08:07:44;16.50;99.90
5962;DHT22;3007;50.770;0.250;2023-10-09T08:10:24;16.60;99.90
5962;DHT22;3007;50.770;0.250;2023-10-09T08:13:08;16.70;99.90
5962;DHT22;3007;50.770;0.250;2023-10-09T08:16:04;16.70;99.90
5962;DHT22;3007;50.770;0.250;2023-10-09T08:18:30;16.80;99.90
5962;DHT22;3007;50.770;0.250;2023-10-09T08:20:57;17.00;99.90
5962;DHT22;3007;50.770;0.250;2023-10-09T08:23:41;17.20;99.90
5962;DHT22;3007;50.770;0.250;2023-10-09T08:26:19;17.30;99.90
5962;DHT22;3007;50.770;0.250;2023-10-09T08:28:55;17.40;99.90
5962;DHT22;3007;50.770;0.250;2023-10-09T08:31:41;17.60;99.90
5962;DHT22;3007;50.770;0.250;2023-10-09T08:34:22;17.70;99.90
5962;DHT22;3007;50.770;0.250;2023-10-09T08:36:52;17.80;99.90
5962;DHT22;3007;50.770;0.250;2023-10-09T08:39:20;17.90;99.90
5962;DHT22;3007;50.770;0.250;2023-10-09T08:41:54;18.00;99.90
5962;DHT22;3007;50.770;0.250;2023-10-09T08:44:24;18.00;99.90
5962;DHT22;3007;50.770;0.250;2023-10-09T08:46:54;18.00;99.90
5962;DHT22;3007;50.770;0.250;2023-10-09T08:49:21;18.00;99.90
5962;DHT22;3007;50.770;0.250;2023-10-09T08:51:48;18.10;99.90
5962;DHT22;3007;50.770;0.250;2023-10-09T08:54:14;18.10;99.90
5962;DHT22;3007;50.770;0.250;2023-10-09T08:56:42;18.10;99.90
5962;DHT22;3007;50.770;0.250;2023-10-09T08:59:17;18.10;99.90
5962;DHT22;3007;50.770;0.250;2023-10-09T09:01:45;18.20;99.90
5962;DHT22;3007;50.770;0.250;2023-10-09T09:04:33;18.20;99.90
5962;DHT22;3007;50.770;0.250;2023-10-09T09:07:00;18.20;99.90
5962;DHT22;3007;50.770;0.250;2023-10-09T09:09:28;18.20;99.90
5962;DHT22;3007;50.770;0.250;2023-10-09T09:11:57;18.20;99.90
5962;DHT22;3007;50.770;0.250;2023-10-09T09:14:36;18.30;99.90
5962;DHT22;3007;50.770;0.250;2023-10-09T09:17:04;18.30;99.90
5962;DHT22;3007;50.770;0.250;2023-10-09T09:19:31;18.30;99.90
5962;DHT22;3007;50.770;0.250;2023-10-09T09:22:03;18.40;99.90
5962;DHT22;3007;50.770;0.250;2023-10-09T09:24:38;18.40;99.90
5962;DHT22;3007;50.770;0.250;2023-10-09T09:27:11;18.40;99.90
5962;DHT22;3007;50.770;0.250;2023-10-09T09:29:45;18.50;99.90
5962;DHT22;3007;50.770;0.250;2023-10-09T09:32:27;18.50;99.90
5962;DHT22;3007;50.770;0.250;2023-10-09T09:34:56;18.60;99.90
5962;DHT22;3007;50.770;0.250;2023-10-09T09:37:27;18.60;99.90
5962;DHT22;3007;50.770;0.250;2023-10-09T09:39:57;18.70;99.90
5962;DHT22;3007;50.770;0.250;2023-10-09T09:42:27;18.70;99.90
5962;DHT22;3007;50.770;0.250;2023-10-09T09:45:00;18.70;99.90
5962;DHT22;3007;50.770;0.250;2023-10-09T09:47:27;18.80;99.90
5962;DHT22;3007;50.770;0.250;2023-10-09T09:49:55;18.80;99.90
5962;DHT22;3007;50.770;0.250;2023-10-09T09:52:30;18.90;99.90
5962;DHT22;3007;50.770;0.250;2023-10-09T09:55:06;18.90;99.90
5962;DHT22;3007;50.770;0.250;2023-10-09T09:57:40;18.90;99.90
5962;DHT22;3007;50.770;0.250;2023-10-09T10:00:13;18.90;99.90
5962;DHT22;3007;50.770;0.250;2023-10-09T10:02:57;18.90;99.90
5962;DHT22;3007;50.770;0.250;2023-10-09T10:05:26;19.00;99.90
5962;DHT22;3007;50.770;0.250;2023-10-09T10:07:56;19.00;99.90
5962;DHT22;3007;50.770;0.250;2023-10-09T10:10:34;19.10;99.90
5962;DHT22;3007;50.770;0.250;2023-10-09T10:13:03;19.10;99.90
5962;DHT22;3007;50.770;0.250;2023-10-09T10:15:59;19.10;99.90
5962;DHT22;3007;50.770;0.250;2023-10-09T10:18:31;19.10;99.90
5962;DHT22;3007;50.770;0.250;2023-10-09T10:21:10;19.10;99.90
5962;DHT22;3007;50.770;0.250;2023-10-09T10:23:42;19.10;99.90
5962;DHT22;3007;50.770;0.250;2023-10-09T10:26:19;19.10;99.90
5962;DHT22;3007;50.770;0.250;2023-10-09T10:29:14;19.20;99.90
5962;DHT22;3007;50.770;0.250;2023-10-09T10:31:54;19.20;99.90
5962;DHT22;3007;50.770;0.250;2023-10-09T10:34:20;19.20;99.90
5962;DHT22;3007;50.770;0.250;2023-10-09T10:36:49;19.30;99.90
5962;DHT22;3007;50.770;0.250;2023-10-09T10:39:18;19.30;99.90
5962;DHT22;3007;50.770;0.250;2023-10-09T10:42:05;19.30;99.90
5962;DHT22;3007;50.770;0.250;2023-10-09T10:44:35;19.30;99.90
5962;DHT22;3007;50.770;0.250;2023-10-09T10:47:05;19.40;99.90
5962;DHT22;3007;50.770;0.250;2023-10-09T10:49:48;19.40;99.90
5962;DHT22;3007;50.770;0.250;2023-10-09T10:52:24;19.40;99.90
5962;DHT22;3007;50.770;0.250;2023-10-09T10:55:08;19.40;99.90
5962;DHT22;3007;50.770;0.250;2023-10-09T10:58:15;19.40;99.90
5962;DHT22;3007;50.770;0.250;2023-10-09T11:00:52;19.50;99.90
5962;DHT22;3007;50.770;0.250;2023-10-09T11:03:38;19.50;99.90
5962;DHT22;3007;50.770;0.250;2023-10-09T11:06:27;19.50;99.90
5962;DHT22;3007;50.770;0.250;2023-10-09T11:09:04;19.50;99.90
5962;DHT22;3007;50.770;0.250;2023-10-09T11:11:47;19.50;99.90
5962;DHT22;3007;50.770;0.250;2023-10-09T11:14:15;19.60;99.90
5962;DHT22;3007;50.770;0.250;2023-10-09T11:16:43;19.50;99.90
5962;DHT22;3007;50.770;0.250;2023-10-09T11:19:19;19.50;99.90
5962;DHT22;3007;50.770;0.250;2023-10-09T11:22:00;19.50;99.90
5962;DHT22;3007;50.770;0.250;2023-10-09T11:24:48;19.50;99.90
5962;DHT22;3007;50.770;0.250;2023-10-09T11:27:27;19.50;99.90
5962;DHT22;3007;50.770;0.250;2023-10-09T11:29:58;19.50;99.90
5962;DHT22;3007;50.770;0.250;2023-10-09T11:32:37;19.50;99.90
5962;DHT22;3007;50.770;0.250;2023-10-09T11:35:14;19.50;99.90
5962;DHT22;3007;50.770;0.250;2023-10-09T11:37:44;19.50;99.90
5962;DHT22;3007;50.770;0.250;2023-10-09T11:40:28;19.50;99.90
5962;DHT22;3007;50.770;0.250;2023-10-09T11:43:00;19.50;99.90
5962;DHT22;3007;50.770;0.250;2023-10-09T11:45:29;19.50;99.90
5962;DHT22;3007;50.770;0.250;2023-10-09T11:47:57;19.40;99.90
5962;DHT22;3007;50.770;0.250;2023-10-09T11:50:42;19.50;99.90
5962;DHT22;3007;50.770;0.250;2023-10-09T11:53:09;19.40;99.90
5962;DHT22;3007;50.770;0.250;2023-10-09T11:55:43;19.40;99.90
5962;DHT22;3007;50.770;0.250;2023-10-09T11:58:14;19.50;99.90
5962;DHT22;3007;50.770;0.250;2023-10-09T12:00:49;19.50;99.90
5962;DHT22;3007;50.770;0.250;2023-10-09T12:03:16;19.50;99.90
5962;DHT22;3007;50.770;0.250;2023-10-09T12:05:48;19.50;99.90
5962;DHT22;3007;50.770;0.250;2023-10-09T12:08:15;19.50;99.90
5962;DHT22;3007;50.770;0.250;2023-10-09T12:10:42;19.50;99.90
5962;DHT22;3007;50.770;0.250;2023-10-09T12:13:09;19.50;99.90
5962;DHT22;3007;50.770;0.250;2023-10-09T12:15:36;19.40;99.90
5962;DHT22;3007;50.770;0.250;2023-10-09T12:18:05;19.40;99.90
5962;DHT22;3007;50.770;0.250;2023-10-09T12:20:34;19.30;99.90
5962;DHT22;3007;50.770;0.250;2023-10-09T12:23:03;19.20;99.90
5962;DHT22;3007;50.770;0.250;2023-10-09T12:25:32;19.20;99.90
5962;DHT22;3007;50.770;0.250;2023-10-09T12:28:01;19.10;99.90
5962;DHT22;3007;50.770;0.250;2023-10-09T12:30:28;19.10;99.90
5962;DHT22;3007;50.770;0.250;2023-10-09T12:32:56;19.00;99.90
5962;DHT22;3007;50.770;0.250;2023-10-09T12:35:24;19.00;99.90
5962;DHT22;3007;50.770;0.250;2023-10-09T12:37:51;19.00;99.90
5962;DHT22;3007;50.770;0.250;2023-10-09T12:40:22;19.00;99.90
5962;DHT22;3007;50.770;0.250;2023-10-09T12:42:54;19.50;99.90
5962;DHT22;3007;50.770;0.250;2023-10-09T12:45:24;18.10;99.90
5962;DHT22;3007;50.770;0.250;2023-10-09T12:47:53;18.90;99.90
5962;DHT22;3007;50.770;0.250;2023-10-09T12:50:24;18.90;99.90
5962;DHT22;3007;50.770;0.250;2023-10-09T12:52:55;18.90;99.90
5962;DHT22;3007;50.770;0.250;2023-10-09T12:55:24;19.00;99.90
5962;DHT22;3007;50.770;0.250;2023-10-09T12:58:01;19.00;99.90
5962;DHT22;3007;50.770;0.250;2023-10-09T13:00:32;19.00;99.90
5962;DHT22;3007;50.770;0.250;2023-10-09T13:02:58;19.10;99.90
5962;DHT22;3007;50.770;0.250;2023-10-09T13:05:27;19.10;99.90
5962;DHT22;3007;50.770;0.250;2023-10-09T13:07:54;19.10;99.90
5962;DHT22;3007;50.770;0.250;2023-10-09T13:10:25;19.10;99.90
5962;DHT22;3007;50.770;0.250;2023-10-09T13:12:57;19.00;99.90
5962;DHT22;3007;50.770;0.250;2023-10-09T13:15:26;19.00;99.90
5962;DHT22;3007;50.770;0.250;2023-10-09T13:17:53;19.00;99.90
5962;DHT22;3007;50.770;0.250;2023-10-09T13:20:20;19.00;99.90
5962;DHT22;3007;50.770;0.250;2023-10-09T13:22:47;19.00;99.90
5962;DHT22;3007;50.770;0.250;2023-10-09T13:25:14;19.00;99.90
5962;DHT22;3007;50.770;0.250;2023-10-09T13:27:44;19.10;99.90
5962;DHT22;3007;50.770;0.250;2023-10-09T13:30:17;19.10;99.90
5962;DHT22;3007;50.770;0.250;2023-10-09T13:32:49;19.10;99.90
5962;DHT22;3007;50.770;0.250;2023-10-09T13:35:17;19.10;99.90
5962;DHT22;3007;50.770;0.250;2023-10-09T13:37:45;19.10;99.90
5962;DHT22;3007;50.770;0.250;2023-10-09T13:40:22;19.10;99.90
5962;DHT22;3007;50.770;0.250;2023-10-09T13:42:56;19.10;99.90
5962;DHT22;3007;50.770;0.250;2023-10-09T13:45:26;19.10;99.90
5962;DHT22;3007;50.770;0.250;2023-10-09T13:47:56;19.10;99.90
5962;DHT22;3007;50.770;0.250;2023-10-09T13:50:24;19.10;99.90
5962;DHT22;3007;50.770;0.250;2023-10-09T13:52:55;19.00;99.90
5962;DHT22;3007;50.770;0.250;2023-10-09T13:55:22;19.00;99.90
5962;DHT22;3007;50.770;0.250;2023-10-09T13:57:58;18.90;99.90
5962;DHT22;3007;50.770;0.250;2023-10-09T14:00:25;18.90;99.90
5962;DHT22;3007;50.770;0.250;2023-10-09T14:03:07;18.90;99.90
5962;DHT22;3007;50.770;0.250;2023-10-09T14:05:39;18.90;99.90
5962;DHT22;3007;50.770;0.250;2023-10-09T14:08:19;18.80;99.90
5962;DHT22;3007;50.770;0.250;2023-10-09T14:10:47;18.90;99.90
5962;DHT22;3007;50.770;0.250;2023-10-09T14:13:16;18.80;99.90
5962;DHT22;3007;50.770;0.250;2023-10-09T14:15:51;18.80;99.90
5962;DHT22;3007;50.770;0.250;2023-10-09T14:18:20;18.80;99.90
5962;DHT22;3007;50.770;0.250;2023-10-09T14:20:47;18.80;99.90
5962;DHT22;3007;50.770;0.250;2023-10-09T14:23:15;18.70;99.90
5962;DHT22;3007;50.770;0.250;2023-10-09T14:25:49;18.70;99.90
5962;DHT22;3007;50.770;0.250;2023-10-09T14:28:21;18.70;99.90
5962;DHT22;3007;50.770;0.250;2023-10-09T14:30:53;18.70;99.90
5962;DHT22;3007;50.770;0.250;2023-10-09T14:33:24;18.70;99.90
5962;DHT22;3007;50.770;0.250;2023-10-09T14:35:54;18.70;99.90
5962;DHT22;3007;50.770;0.250;2023-10-09T14:38:21;18.60;99.90
5962;DHT22;3007;50.770;0.250;2023-10-09T14:40:53;18.60;99.90
5962;DHT22;3007;50.770;0.250;2023-10-09T14:43:24;18.60;99.90
5962;DHT22;3007;50.770;0.250;2023-10-09T14:45:54;18.60;99.90
5962;DHT22;3007;50.770;0.250;2023-10-09T14:48:21;18.50;99.90
5962;DHT22;3007;50.770;0.250;2023-10-09T14:50:52;18.50;99.90
5962;DHT22;3007;50.770;0.250;2023-10-09T14:53:19;18.50;99.90
5962;DHT22;3007;50.770;0.250;2023-10-09T14:55:53;18.50;99.90
5962;DHT22;3007;50.770;0.250;2023-10-09T14:58:20;18.50;99.90
5962;DHT22;3007;50.770;0.250;2023-10-09T15:00:51;18.50;99.90
5962;DHT22;3007;50.770;0.250;2023-10-09T15:03:19;18.50;99.90
5962;DHT22;3007;50.770;0.250;2023-10-09T15:05:48;18.50;99.90
5962;DHT22;3007;50.770;0.250;2023-10-09T15:08:15;18.40;99.90
5962;DHT22;3007;50.770;0.250;2023-10-09T15:10:46;18.40;99.90
5962;DHT22;3007;50.770;0.250;2023-10-09T15:13:17;18.40;99.90
5962;DHT22;3007;50.770;0.250;2023-10-09T15:15:45;18.30;99.90
5962;DHT22;3007;50.770;0.250;2023-10-09T15:18:18;18.30;99.90
5962;DHT22;3007;50.770;0.250;2023-10-09T15:20:47;18.30;99.90
5962;DHT22;3007;50.770;0.250;2023-10-09T15:23:14;18.30;99.90
5962;DHT22;3007;50.770;0.250;2023-10-09T15:25:41;18.30;99.90
5962;DHT22;3007;50.770;0.250;2023-10-09T15:28:10;18.20;99.90
5962;DHT22;3007;50.770;0.250;2023-10-09T15:30:39;18.20;99.90
5962;DHT22;3007;50.770;0.250;2023-10-09T15:33:06;18.20;99.90
5962;DHT22;3007;50.770;0.250;2023-10-09T15:35:35;18.10;99.90
5962;DHT22;3007;50.770;0.250;2023-10-09T15:38:03;18.10;99.90
5962;DHT22;3007;50.770;0.250;2023-10-09T15:40:30;18.10;99.90
5962;DHT22;3007;50.770;0.250;2023-10-09T15:43:00;18.00;99.90
5962;DHT22;3007;50.770;0.250;2023-10-09T15:45:27;18.00;99.90
5962;DHT22;3007;50.770;0.250;2023-10-09T15:47:55;18.00;99.90
5962;DHT22;3007;50.770;0.250;2023-10-09T15:50:23;18.00;99.90
5962;DHT22;3007;50.770;0.250;2023-10-09T15:52:53;17.90;99.90
5962;DHT22;3007;50.770;0.250;2023-10-09T15:55:21;17.90;99.90
5962;DHT22;3007;50.770;0.250;2023-10-09T15:57:50;17.90;99.90
5962;DHT22;3007;50.770;0.250;2023-10-09T16:00:22;17.90;99.90
5962;DHT22;3007;50.770;0.250;2023-10-09T16:02:54;17.90;99.90
5962;DHT22;3007;50.770;0.250;2023-10-09T16:05:22;17.80;99.90
5962;DHT22;3007;50.770;0.250;2023-10-09T16:07:52;17.80;99.90
5962;DHT22;3007;50.770;0.250;2023-10-09T16:10:20;17.80;99.90
5962;DHT22;3007;50.770;0.250;2023-10-09T16:12:48;17.80;99.90
5962;DHT22;3007;50.770;0.250;2023-10-09T16:15:16;17.70;99.90
5962;DHT22;3007;50.770;0.250;2023-10-09T16:17:46;17.70;99.90
5962;DHT22;3007;50.770;0.250;2023-10-09T16:20:14;17.70;99.90
5962;DHT22;3007;50.770;0.250;2023-10-09T16:22:47;17.60;99.90
5962;DHT22;3007;50.770;0.250;2023-10-09T16:25:16;17.60;99.90
5962;DHT22;3007;50.770;0.250;2023-10-09T16:27:49;17.60;99.90
5962;DHT22;3007;50.770;0.250;2023-10-09T16:30:17;17.60;99.90
5962;DHT22;3007;50.770;0.250;2023-10-09T16:32:46;17.50;99.90
5962;DHT22;3007;50.770;0.250;2023-10-09T16:35:13;17.50;99.90
5962;DHT22;3007;50.770;0.250;2023-10-09T16:37:40;17.50;99.90
5962;DHT22;3007;50.770;0.250;2023-10-09T16:40:08;17.40;99.90
5962;DHT22;3007;50.770;0.250;2023-10-09T16:42:40;17.40;99.90